Sun City, Kansas
Current Conditions -  °F | °C
As of 10:35 AM on Saturday 20 Dec 2014 (Local Time) from KPTT Reporting Station
Clear Clear  
Wind Chill: 34°   Ceiling: Unl
Heat Index: 41°   Visibility: 7mi
Dew Point: 41°   Wind: 12mph
Humidity: 100%   Direction: 200°SSW
Pressure: 30.13"   Gusts: NA
Location:  37.38°N, 98.92°W
Report Text: KPTT 201635Z AUTO 20010KT 7SM CLR 05/05 A3013 RMK AO2
Loading
Personal Weather Stations






























Interactive Weather Map New forecast layout! Learn more

10-Day Weather Forecast

Advertisements
Track Severe Weather on mobile